Time;durP1;ratioP1;P1;durP2;ratioP2;P2;SDS_P1;SDS_P2;PMS_P1;PMS_P2;Temp;Humidity;BMP_temperature;BMP_pressure;BME280_temperature;BME280_humidity;BME280_pressure;Samples;Min_cycle;Max_cycle;Signal;HPM_P1;HPM_P2
2022/04/20 00:01:08;;;;;;;10.98;8.02;;;256.20;2252.80;;;;;;5052703;28;19932;-77
2022/04/20 00:03:34;;;;;;;11.13;8.30;;;256.30;2252.80;;;;;;5052263;28;20021;-77
2022/04/20 00:06:00;;;;;;;13.23;9.05;;;256.40;2252.80;;;;;;5052571;28;20020;-77
2022/04/20 00:08:25;;;;;;;;;;;256.30;2252.80;;;;;;5052686;28;20064;-77
2022/04/20 00:10:51;;;;;;;14.95;9.07;;;256.20;2252.80;;;;;;5052705;28;19999;-77
2022/04/20 00:13:17;;;;;;;;;;;256.20;2252.80;;;;;;5053651;28;20032;-78
2022/04/20 00:15:42;;;;;;;13.43;9.52;;;256.40;2252.80;;;;;;5053194;28;19904;-77
2022/04/20 00:18:08;;;;;;;14.27;9.55;;;256.50;2252.80;;;;;;5053286;28;20055;-77
2022/04/20 00:20:34;;;;;;;;;;;256.50;2252.80;;;;;;5053484;28;20013;-78
2022/04/20 00:22:59;;;;;;;13.55;9.35;;;256.50;2252.80;;;;;;5053626;28;19979;-77
2022/04/20 00:25:25;;;;;;;;;;;256.50;2252.80;;;;;;5053686;28;20029;-77
2022/04/20 00:27:51;;;;;;;13.80;8.98;;;256.60;2252.80;;;;;;5053349;28;20364;-78
2022/04/20 00:30:16;;;;;;;;;;;256.70;2252.80;;;;;;5049941;28;20036;-77
2022/04/20 00:32:42;;;;;;;13.70;9.25;;;256.80;2252.80;;;;;;5052420;28;19908;-78
2022/04/20 00:35:09;;;;;;;;;;;256.80;2252.80;;;;;;5052414;28;20028;-77
2022/04/20 00:37:35;;;;;;;12.85;8.07;;;256.80;2252.80;;;;;;5035630;28;19944;-77
2022/04/20 00:40:03;;;;;;;12.70;8.32;;;256.70;2252.80;;;;;;5052991;28;20071;-77
2022/04/20 00:42:29;;;;;;;16.33;10.05;;;256.50;2252.80;;;;;;5051705;28;20021;-77
2022/04/20 00:44:56;;;;;;;12.70;7.90;;;256.30;2252.80;;;;;;5050669;28;20016;-77
2022/04/20 00:47:23;;;;;;;13.65;8.98;;;256.20;2252.80;;;;;;5052970;28;20096;-77
2022/04/20 00:49:49;;;;;;;12.57;8.45;;;256.40;2252.80;;;;;;5052910;28;20052;-78
2022/04/20 00:52:14;;;;;;;15.98;10.13;;;256.50;2252.80;;;;;;5051873;28;20514;-77
2022/04/20 00:54:40;;;;;;;13.20;9.05;;;256.50;2252.80;;;;;;5051714;28;20491;-77
2022/04/20 00:57:06;;;;;;;;;;;256.40;2252.80;;;;;;5052908;28;20152;-77
2022/04/20 00:59:34;;;;;;;12.75;8.75;;;256.30;2252.80;;;;;;5051569;28;19904;-77
2022/04/20 01:02:00;;;;;;;14.20;9.02;;;256.10;2252.80;;;;;;5049808;28;20017;-77
2022/04/20 01:04:27;;;;;;;18.13;10.15;;;256.10;2252.80;;;;;;5051581;28;20032;-77
2022/04/20 01:06:53;;;;;;;14.65;9.05;;;256.10;2252.80;;;;;;5051534;28;20028;-78
2022/04/20 01:09:19;;;;;;;14.73;9.13;;;256.10;2252.80;;;;;;5051213;28;20400;-78
2022/04/20 01:11:45;;;;;;;;;;;256.10;2252.80;;;;;;5052057;28;20087;-78
2022/04/20 01:14:11;;;;;;;19.60;9.10;;;256.20;2252.80;;;;;;5052350;28;20369;-77
2022/04/20 01:16:37;;;;;;;13.80;9.25;;;256.10;2252.80;;;;;;5051384;28;20024;-77
2022/04/20 01:19:03;;;;;;;12.15;9.15;;;256.10;2252.80;;;;;;5052522;28;20104;-77
2022/04/20 01:21:29;;;;;;;15.50;9.40;;;256.10;2252.80;;;;;;5051129;28;20028;-77
2022/04/20 01:23:55;;;;;;;16.30;9.90;;;256.10;2252.80;;;;;;5051222;28;20032;-77
2022/04/20 01:26:21;;;;;;;26.83;11.80;;;256.20;2252.80;;;;;;5055292;28;20401;-79
2022/04/20 01:28:47;;;;;;;;;;;256.30;2252.80;;;;;;5057244;28;20115;-78
2022/04/20 01:31:17;;;;;;;14.75;8.90;;;256.50;2252.80;;;;;;5054516;28;19904;-78
2022/04/20 01:33:44;;;;;;;16.75;9.43;;;256.30;2252.80;;;;;;5048822;28;20029;-77
2022/04/20 01:36:11;;;;;;;15.93;10.02;;;256.20;2252.80;;;;;;5050997;28;20052;-77
2022/04/20 01:38:38;;;;;;;11.55;9.15;;;256.20;2252.80;;;;;;5051098;28;20036;-77
2022/04/20 01:41:04;;;;;;;14.10;9.52;;;256.20;2252.80;;;;;;5050769;28;20394;-77
2022/04/20 01:43:30;;;;;;;14.75;9.30;;;256.00;2252.80;;;;;;5046743;28;20024;-77
2022/04/20 01:45:55;;;;;;;13.00;9.20;;;231.30;2252.80;;;;;;5050483;28;20025;-77
2022/04/20 01:48:21;;;;;;;;;;;231.30;2252.80;;;;;;5052460;28;20112;-77
2022/04/20 01:53:31;;;;;;;14.80;10.15;;;231.10;2252.80;;;;;;5050372;28;20036;-78
2022/04/20 01:55:59;;;;;;;15.60;9.77;;;231.10;2252.80;;;;;;5051430;28;20025;-77
2022/04/20 01:58:24;;;;;;;14.52;8.70;;;231.10;2252.80;;;;;;5052323;28;20030;-77
2022/04/20 02:00:50;;;;;;;14.90;10.40;;;231.10;2252.80;;;;;;5055006;28;20021;-78
2022/04/20 02:03:16;;;;;;;;;;;231.30;2252.80;;;;;;5055085;28;20115;-77
2022/04/20 02:05:41;;;;;;;14.00;10.05;;;231.30;2252.80;;;;;;5054829;28;20439;-78
2022/04/20 02:08:07;;;;;;;;;;;256.10;2252.80;;;;;;5054963;28;20025;-77
2022/04/20 02:10:33;;;;;;;14.95;10.35;;;256.00;2252.80;;;;;;5054773;28;19904;-77
2022/04/20 02:12:59;;;;;;;;;;;256.10;2252.80;;;;;;5052384;28;20068;-77
2022/04/20 02:15:24;;;;;;;13.80;9.98;;;256.00;2252.80;;;;;;5046482;28;19958;-77
2022/04/20 02:17:50;;;;;;;;;;;256.20;2252.80;;;;;;5055185;28;20025;-77
2022/04/20 02:20:16;;;;;;;17.05;9.63;;;256.20;2252.80;;;;;;5054388;28;20000;-77
2022/04/20 02:22:41;;;;;;;;;;;256.00;2252.80;;;;;;5054744;28;20025;-77
2022/04/20 02:25:07;;;;;;;13.90;10.05;;;256.10;2252.80;;;;;;5054161;28;20416;-77
2022/04/20 02:27:33;;;;;;;;;;;256.00;2252.80;;;;;;5054538;28;20378;-77
2022/04/20 02:29:59;;;;;;;13.93;9.77;;;256.10;2252.80;;;;;;5054102;28;19919;-77
2022/04/20 02:32:24;;;;;;;16.13;9.80;;;256.00;2252.80;;;;;;5077022;28;20388;-78
2022/04/20 02:34:50;;;;;;;;;;;256.10;2252.80;;;;;;5054442;28;20029;-77
2022/04/20 02:37:16;;;;;;;13.02;9.43;;;256.20;2252.80;;;;;;5055449;28;20774;-78
2022/04/20 02:39:44;;;;;;;15.18;10.20;;;256.20;2252.80;;;;;;5053904;28;20021;-78
2022/04/20 02:42:11;;;;;;;16.25;9.90;;;256.30;2252.80;;;;;;5055208;28;20009;-77
2022/04/20 02:44:38;;;;;;;16.38;11.30;;;256.20;2252.80;;;;;;5054279;28;20036;-77
2022/04/20 02:47:04;;;;;;;15.15;10.93;;;256.20;2252.80;;;;;;5053491;28;20036;-77
2022/04/20 02:49:30;;;;;;;14.35;10.35;;;256.30;2252.80;;;;;;5054013;28;20112;-77
2022/04/20 02:51:56;;;;;;;14.95;10.35;;;256.40;2252.80;;;;;;5046801;28;20104;-77
2022/04/20 02:54:21;;;;;;;;;;;256.30;2252.80;;;;;;5051490;28;20033;-78
2022/04/20 02:56:47;;;;;;;15.13;11.32;;;256.30;2252.80;;;;;;5054722;28;20011;-77
2022/04/20 02:59:13;;;;;;;;;;;256.30;2252.80;;;;;;5054398;28;20074;-77
2022/04/20 03:01:39;;;;;;;14.43;9.45;;;256.30;2252.80;;;;;;5053436;28;19905;-77
2022/04/20 03:04:04;;;;;;;14.88;10.43;;;256.20;2252.80;;;;;;5054722;28;20096;-77
2022/04/20 03:06:31;;;;;;;17.65;11.85;;;256.20;2252.80;;;;;;5053398;28;20115;-77
2022/04/20 03:08:56;;;;;;;17.45;10.95;;;256.20;2252.80;;;;;;5052247;28;20033;-77
2022/04/20 03:11:22;;;;;;;16.48;10.88;;;256.40;2252.80;;;;;;5053745;28;20021;-78
2022/04/20 03:13:48;;;;;;;;;;;256.40;2252.80;;;;;;5055020;28;20033;-77
2022/04/20 03:16:15;;;;;;;21.02;11.10;;;256.40;2252.80;;;;;;5053406;28;19912;-77
2022/04/20 03:18:41;;;;;;;16.42;10.70;;;256.20;2252.80;;;;;;5054437;28;20389;-77
2022/04/20 03:21:07;;;;;;;13.85;10.15;;;256.20;2252.80;;;;;;5050138;28;20029;-77
2022/04/20 03:23:32;;;;;;;16.10;11.30;;;256.30;2252.80;;;;;;5054419;28;20042;-77
2022/04/20 03:25:58;;;;;;;;;;;256.30;2252.80;;;;;;5054731;28;20056;-77
2022/04/20 03:28:24;;;;;;;14.23;10.00;;;256.20;2252.80;;;;;;5053104;28;19923;-77
2022/04/20 03:30:50;;;;;;;;;;;256.30;2252.80;;;;;;5044091;28;20401;-77
2022/04/20 03:33:16;;;;;;;18.48;10.98;;;256.30;2252.80;;;;;;5045923;28;19992;-77
2022/04/20 03:35:42;;;;;;;15.60;10.57;;;256.20;2252.80;;;;;;5052912;28;20027;-77
2022/04/20 03:38:09;;;;;;;16.98;11.80;;;256.40;2252.80;;;;;;5054269;28;20024;-77
2022/04/20 03:40:35;;;;;;;14.30;10.82;;;256.20;2252.80;;;;;;5051635;28;20040;-77
2022/04/20 03:43:04;;;;;;;15.60;11.05;;;256.30;2252.80;;;;;;5041156;28;20021;-77
2022/04/20 03:45:30;;;;;;;14.38;10.55;;;256.40;2252.80;;;;;;5051316;28;20044;-77
2022/04/20 03:47:56;;;;;;;17.55;11.75;;;256.40;2252.80;;;;;;5054166;28;20053;-77
2022/04/20 03:50:21;;;;;;;;;;;256.40;2252.80;;;;;;5054299;28;20029;-77
2022/04/20 03:52:47;;;;;;;14.82;11.07;;;256.40;2252.80;;;;;;5052718;28;19909;-77
2022/04/20 03:55:12;;;;;;;;;;;256.30;2252.80;;;;;;5053017;28;20025;-77
2022/04/20 03:57:39;;;;;;;16.85;11.77;;;256.20;2252.80;;;;;;5052582;28;20372;-77
2022/04/20 04:00:06;;;;;;;17.13;11.55;;;256.20;2252.80;;;;;;5052313;28;20473;-76
2022/04/20 04:02:31;;;;;;;23.10;17.00;;;256.20;2252.80;;;;;;5053536;28;20100;-77
2022/04/20 04:04:57;;;;;;;20.92;13.13;;;256.20;2252.80;;;;;;5053022;28;20104;-77
2022/04/20 04:07:23;;;;;;;;;;;256.30;2252.80;;;;;;5052999;28;20021;-79
2022/04/20 04:09:49;;;;;;;19.20;11.95;;;256.20;2252.80;;;;;;5047299;28;20579;-77
2022/04/20 04:12:14;;;;;;;;;;;256.20;2252.80;;;;;;5052494;28;20409;-77
2022/04/20 04:14:41;;;;;;;20.98;12.82;;;256.10;2252.80;;;;;;5053698;28;19995;-79
2022/04/20 04:17:08;;;;;;;23.00;14.75;;;231.10;2252.80;;;;;;5052524;28;20539;-78
2022/04/20 04:19:35;;;;;;;16.90;12.50;;;256.20;2252.80;;;;;;5052378;28;20039;-77
2022/04/20 04:22:05;;;;;;;22.13;13.60;;;256.20;2252.80;;;;;;5052338;28;20500;-77
2022/04/20 04:24:37;;;;;;;18.88;12.90;;;256.20;2252.80;;;;;;5049902;28;20032;-77
2022/04/20 04:27:09;;;;;;;21.23;15.45;;;256.20;2252.80;;;;;;5049287;28;20059;-77
2022/04/20 04:29:35;;;;;;;16.02;12.07;;;256.20;2252.80;;;;;;5034329;28;20041;-77
2022/04/20 04:32:01;;;;;;;18.92;13.13;;;256.20;2252.80;;;;;;5045412;28;20481;-78
2022/04/20 04:34:27;;;;;;;19.33;13.73;;;256.20;2252.80;;;;;;5053226;28;20131;-77
2022/04/20 04:36:54;;;;;;;21.08;14.50;;;256.20;2252.80;;;;;;5051958;28;20047;-77
2022/04/20 04:39:23;;;;;;;19.70;14.18;;;256.30;2252.80;;;;;;5052054;28;20025;-77
2022/04/20 04:41:50;;;;;;;20.73;14.77;;;256.30;2252.80;;;;;;5051946;28;20025;-79
2022/04/20 04:44:20;;;;;;;22.73;16.55;;;256.20;2252.80;;;;;;5051968;28;20053;-77
2022/04/20 04:49:31;;;;;;;23.38;16.25;;;256.20;2252.80;;;;;;5053135;28;20113;-76
2022/04/20 04:51:58;;;;;;;27.17;16.40;;;256.20;2252.80;;;;;;5051713;28;20473;-76
2022/04/20 04:54:25;;;;;;;25.23;17.15;;;256.20;2252.80;;;;;;5051820;28;20044;-76
2022/04/20 04:56:51;;;;;;;23.33;16.88;;;256.10;2252.80;;;;;;5052784;28;20032;-76
2022/04/20 04:59:20;;;;;;;23.95;16.73;;;256.00;2252.80;;;;;;5051801;28;20370;-76
2022/04/20 05:01:46;;;;;;;21.02;15.30;;;256.20;2252.80;;;;;;5052011;28;20162;-76
2022/04/20 05:04:12;;;;;;;21.77;13.70;;;256.00;2252.80;;;;;;5051406;28;20493;-76
2022/04/20 05:06:38;;;;;;;;;;;256.10;2252.80;;;;;;5051998;28;20017;-76
2022/04/20 05:09:04;;;;;;;20.95;15.35;;;256.10;2252.80;;;;;;5052654;28;19923;-76
2022/04/20 05:11:30;;;;;;;23.08;15.85;;;256.20;2252.80;;;;;;5051655;28;20024;-76
2022/04/20 05:13:56;;;;;;;23.02;15.32;;;256.10;2252.80;;;;;;5057632;28;20100;-77
2022/04/20 05:16:22;;;;;;;22.45;15.90;;;256.20;2252.80;;;;;;5056311;28;20132;-77
2022/04/20 05:18:48;;;;;;;29.40;18.58;;;256.10;2252.80;;;;;;5052566;28;20033;-77
2022/04/20 05:21:13;;;;;;;54.75;34.00;;;256.10;2252.80;;;;;;5052643;28;20074;-77
2022/04/20 05:23:39;;;;;;;32.20;20.58;;;256.20;2252.80;;;;;;5052585;28;20078;-77
2022/04/20 05:26:05;;;;;;;;;;;256.20;2252.80;;;;;;5052540;28;20056;-77
2022/04/20 05:28:31;;;;;;;22.60;16.25;;;256.20;2252.80;;;;;;5052627;28;19912;-77
2022/04/20 05:30:56;;;;;;;20.33;14.32;;;256.20;2252.80;;;;;;5050610;28;20025;-77
2022/04/20 05:33:22;;;;;;;;;;;256.10;2252.80;;;;;;5051669;28;20027;-76
2022/04/20 05:35:48;;;;;;;22.98;15.57;;;256.20;2252.80;;;;;;5051251;28;19916;-76
2022/04/20 05:43:42;;;;;;;25.40;16.25;;;256.20;2252.80;;;;;;5052538;28;20490;-77
2022/04/20 05:46:09;;;;;;;27.98;16.30;;;231.30;2252.80;;;;;;5051105;28;20021;-77
2022/04/20 05:48:35;;;;;;;21.17;14.60;;;231.20;2252.80;;;;;;5051847;28;20025;-77
2022/04/20 05:51:01;;;;;;;23.98;14.73;;;231.20;2252.80;;;;;;5051291;28;20504;-77
2022/04/20 05:53:26;;;;;;;;;;;231.10;2252.80;;;;;;5051412;28;20040;-77
2022/04/20 05:55:52;;;;;;;19.25;13.13;;;231.10;2252.80;;;;;;5050848;28;19919;-77
2022/04/20 05:58:18;;;;;;;;;;;231.30;2252.80;;;;;;5051664;28;20439;-76
2022/04/20 06:00:44;;;;;;;19.42;12.20;;;231.30;2252.80;;;;;;5051040;28;19909;-75
2022/04/20 06:03:11;;;;;;;;;;;231.30;2252.80;;;;;;5051554;28;20116;-78
2022/04/20 06:05:37;;;;;;;;;;;231.20;2252.80;;;;;;5051273;28;19905;-77
2022/04/20 06:08:02;;;;;;;21.55;13.13;;;231.10;2252.80;;;;;;5052517;28;20319;-77
2022/04/20 06:10:30;;;;;;;;;;;231.10;2252.80;;;;;;5051387;28;20060;-77
2022/04/20 06:12:56;;;;;;;27.17;15.38;;;231.10;2252.80;;;;;;5051170;28;19931;-78
2022/04/20 06:15:21;;;;;;;23.55;16.70;;;231.10;2252.80;;;;;;5051121;28;20461;-80
2022/04/20 06:17:47;;;;;;;;;;;231.20;2252.80;;;;;;5050961;28;20036;-79
2022/04/20 06:20:13;;;;;;;26.63;17.67;;;231.20;2252.80;;;;;;5050852;28;19909;-78
2022/04/20 06:22:38;;;;;;;;;;;231.20;2252.80;;;;;;5051237;28;20472;-77
2022/04/20 06:25:05;;;;;;;25.30;16.40;;;231.30;2252.80;;;;;;5050971;28;20344;-77
2022/04/20 06:27:31;;;;;;;20.20;14.05;;;231.30;2252.80;;;;;;5050551;28;20102;-76
2022/04/20 06:29:57;;;;;;;19.40;14.05;;;256.10;2252.80;;;;;;5050862;28;20064;-78
2022/04/20 06:32:24;;;;;;;17.98;13.48;;;256.00;2252.80;;;;;;5050870;28;20044;-77
2022/04/20 06:34:54;;;;;;;21.55;12.70;;;256.00;2252.80;;;;;;5051037;28;20029;-77
2022/04/20 06:37:22;;;;;;;18.63;13.50;;;256.10;2252.80;;;;;;5050936;28;20086;-77
2022/04/20 06:39:49;;;;;;;24.70;15.68;;;231.30;2252.80;;;;;;5050736;28;20508;-78
2022/04/20 06:42:16;;;;;;;24.33;16.48;;;256.10;2252.80;;;;;;5051953;28;20028;-76
2022/04/20 06:44:42;;;;;;;26.33;19.08;;;256.10;2252.80;;;;;;5054222;28;20070;-78
2022/04/20 06:47:08;;;;;;;23.52;16.17;;;256.30;2252.80;;;;;;5054264;28;20021;-77
2022/04/20 06:49:33;;;;;;;;;;;256.20;2252.80;;;;;;5054762;28;20043;-76
2022/04/20 07:00:12;;;;;;;25.40;17.92;;;256.30;2252.80;;;;;;5055639;28;20402;-76
2022/04/20 07:02:38;;;;;;;20.67;15.27;;;256.20;2252.80;;;;;;5054138;28;20082;-79
2022/04/20 07:05:05;;;;;;;18.70;13.57;;;256.20;2252.80;;;;;;5054559;28;20033;-80
2022/04/20 07:07:31;;;;;;;17.42;12.98;;;256.40;2252.80;;;;;;5054078;28;20035;-79
2022/04/20 07:09:57;;;;;;;17.20;13.10;;;256.20;2252.80;;;;;;5053567;28;20493;-77
2022/04/20 07:12:23;;;;;;;;;;;256.20;2252.80;;;;;;5055730;28;20024;-78
2022/04/20 07:14:48;;;;;;;18.73;13.20;;;256.20;2252.80;;;;;;5053987;28;19908;-77
2022/04/20 07:17:15;;;;;;;;;;;256.00;2252.80;;;;;;5054252;28;20033;-78
2022/04/20 07:19:40;;;;;;;13.05;9.13;;;231.30;2252.80;;;;;;5053687;28;20357;-78
2022/04/20 07:22:06;;;;;;;22.13;12.93;;;256.00;2252.80;;;;;;5055041;28;20029;-77
2022/04/20 07:24:31;;;;;;;;;;;256.10;2252.80;;;;;;5055115;28;20021;-76
2022/04/20 07:26:57;;;;;;;15.68;11.45;;;256.30;2252.80;;;;;;5053228;28;20024;-75
2022/04/20 07:29:23;;;;;;;;;;;256.40;2252.80;;;;;;5054826;28;20044;-76
2022/04/20 07:31:48;;;;;;;19.70;13.68;;;256.30;2252.80;;;;;;5053335;28;19970;-76
2022/04/20 07:34:14;;;;;;;;;;;256.40;2252.80;;;;;;5053953;28;20036;-76
2022/04/20 07:36:40;;;;;;;12.93;9.75;;;256.50;2252.80;;;;;;5053236;28;19905;-76
2022/04/20 07:39:05;;;;;;;;;;;256.30;2252.80;;;;;;5053910;28;20110;-77
2022/04/20 07:41:31;;;;;;;14.38;9.88;;;256.50;2252.80;;;;;;5053437;28;19950;-77
2022/04/20 07:43:56;;;;;;;;;;;256.50;2252.80;;;;;;5053487;28;20477;-77
2022/04/20 07:46:22;;;;;;;15.38;10.35;;;256.50;2252.80;;;;;;5053034;28;19905;-77
2022/04/20 07:48:48;;;;;;;;;;;256.50;2252.80;;;;;;5053620;28;20414;-77
2022/04/20 07:51:14;;;;;;;16.38;10.88;;;256.50;2252.80;;;;;;5054270;28;19948;-76
2022/04/20 07:53:40;;;;;;;15.82;12.30;;;256.30;2252.80;;;;;;5052609;28;20116;-76
2022/04/20 07:56:06;;;;;;;21.33;13.18;;;256.30;2252.80;;;;;;5052973;28;20116;-79
2022/04/20 07:58:32;;;;;;;;;;;256.40;2252.80;;;;;;5053616;28;20029;-76
2022/04/20 08:00:57;;;;;;;13.05;9.73;;;256.40;2252.80;;;;;;5052821;28;19958;-78
2022/04/20 08:03:24;;;;;;;;;;;256.50;2252.80;;;;;;5053676;28;20025;-77
2022/04/20 08:05:53;;;;;;;16.80;11.18;;;256.50;2252.80;;;;;;5054107;28;19928;-77
2022/04/20 08:08:20;;;;;;;16.08;11.52;;;256.50;2252.80;;;;;;5053964;28;20025;-77
2022/04/20 08:10:47;;;;;;;12.75;10.50;;;256.50;2252.80;;;;;;5054179;28;20020;-77
2022/04/20 08:15:57;;;;;;;15.20;10.65;;;256.50;2252.80;;;;;;5054089;28;20128;-77
2022/04/20 08:18:23;;;;;;;17.38;11.20;;;256.50;2252.80;;;;;;5052232;28;20516;-77
2022/04/20 08:20:50;;;;;;;14.27;9.85;;;256.50;2252.80;;;;;;5052839;28;20041;-79
2022/04/20 08:23:16;;;;;;;13.27;10.52;;;256.50;2252.80;;;;;;5052877;28;20112;-78
2022/04/20 08:25:42;;;;;;;14.93;11.43;;;256.40;2252.80;;;;;;5053562;28;20481;-78
2022/04/20 08:28:09;;;;;;;17.45;12.05;;;256.20;2252.80;;;;;;5052894;28;20033;-79
2022/04/20 08:30:37;;;;;;;18.80;11.07;;;256.40;2252.80;;;;;;5052619;28;20028;-79
2022/04/20 08:33:07;;;;;;;23.80;12.13;;;256.50;2252.80;;;;;;5052771;28;20370;-78
2022/04/20 08:35:37;;;;;;;16.83;12.88;;;256.60;2252.80;;;;;;5052612;28;20053;-79
2022/04/20 08:38:03;;;;;;;18.40;13.73;;;256.60;2252.80;;;;;;5052722;28;20078;-75
2022/04/20 08:40:29;;;;;;;18.58;13.35;;;256.70;2252.80;;;;;;5052612;28;20029;-76
2022/04/20 08:42:56;;;;;;;18.02;13.77;;;256.60;2252.80;;;;;;5052528;28;20025;-78
2022/04/20 08:45:22;;;;;;;18.25;14.30;;;256.60;2252.80;;;;;;5052578;28;20055;-77
2022/04/20 08:47:49;;;;;;;19.35;14.43;;;256.70;2252.80;;;;;;5056620;28;20029;-78
2022/04/20 08:50:16;;;;;;;24.63;16.55;;;256.50;2252.80;;;;;;5059620;28;20044;-79
2022/04/20 08:52:46;;;;;;;20.40;14.93;;;256.40;2252.80;;;;;;5056870;28;20025;-78
2022/04/20 08:55:17;;;;;;;20.90;14.15;;;256.40;2252.80;;;;;;5052076;28;20366;-79
2022/04/20 08:57:47;;;;;;;26.17;16.55;;;256.50;2252.80;;;;;;5051817;28;20385;-77
2022/04/20 09:00:20;;;;;;;21.05;15.98;;;256.60;2252.80;;;;;;5051857;28;20043;-78
2022/04/20 09:02:50;;;;;;;20.92;15.30;;;256.60;2252.80;;;;;;5051924;28;20036;-77
2022/04/20 09:05:16;;;;;;;21.67;15.85;;;256.70;2252.80;;;;;;5051970;28;20481;-77
2022/04/20 09:07:41;;;;;;;27.00;18.75;;;256.80;2252.80;;;;;;5051496;28;20040;-77
2022/04/20 09:10:07;;;;;;;24.33;18.17;;;256.80;2252.80;;;;;;5051441;28;20397;-77
2022/04/20 09:12:33;;;;;;;;;;;256.90;2252.80;;;;;;5052493;28;20029;-78
2022/04/20 09:15:00;;;;;;;21.23;14.88;;;256.90;2252.80;;;;;;5051643;28;19932;-77
2022/04/20 09:17:26;;;;;;;24.25;15.80;;;256.80;2252.80;;;;;;5051390;28;20020;-77
2022/04/20 09:19:56;;;;;;;24.55;18.05;;;256.90;2252.80;;;;;;5052678;28;20021;-77
2022/04/20 09:22:23;;;;;;;23.50;16.15;;;281.60;2278.40;;;;;;5051168;28;20059;-77
2022/04/20 09:25:14;;;;;;;20.92;14.82;;;281.60;2278.40;;;;;;5052590;28;20366;-76
2022/04/20 09:27:42;;;;;;;23.05;15.95;;;256.90;2252.80;;;;;;5051061;28;20064;-78
2022/04/20 09:30:15;;;;;;;20.60;15.85;;;256.90;2252.80;;;;;;5050794;28;20045;-78
2022/04/20 09:32:43;;;;;;;25.75;18.58;;;256.90;2252.80;;;;;;5051428;28;20021;-77
2022/04/20 09:35:18;;;;;;;25.17;16.88;;;256.90;2252.80;;;;;;5052220;28;20024;-77
2022/04/20 09:37:45;;;;;;;22.45;17.83;;;256.90;2252.80;;;;;;5051264;28;20029;-77
2022/04/20 09:40:13;;;;;;;27.20;18.23;;;256.80;2252.80;;;;;;5050643;28;20123;-77
2022/04/20 09:43:02;;;;;;;24.05;18.52;;;256.90;2252.80;;;;;;5051121;28;20106;-77
2022/04/20 09:45:28;;;;;;;24.38;17.38;;;281.60;2278.40;;;;;;5051408;28;20021;-78
2022/04/20 09:50:39;;;;;;;24.23;17.65;;;256.60;2252.80;;;;;;5052709;28;20040;-77
2022/04/20 09:53:10;;;;;;;25.98;19.67;;;256.50;2252.80;;;;;;5052411;28;20021;-79
2022/04/20 09:55:37;;;;;;;31.70;21.73;;;256.40;2252.80;;;;;;5051386;28;20032;-79
2022/04/20 09:58:12;;;;;;;36.33;28.10;;;256.60;2252.80;;;;;;5050632;28;20044;-80
2022/04/20 10:00:42;;;;;;;36.15;27.50;;;256.60;2252.80;;;;;;5050905;28;20070;-76
2022/04/20 10:03:08;;;;;;;27.42;20.38;;;256.60;2252.80;;;;;;5050915;28;20043;-77
2022/04/20 10:05:37;;;;;;;25.30;19.50;;;256.50;2252.80;;;;;;5051051;28;20029;-76
2022/04/20 10:08:03;;;;;;;25.30;18.27;;;256.50;2252.80;;;;;;5050660;28;20025;-75
2022/04/20 10:10:38;;;;;;;29.25;20.65;;;256.80;2252.80;;;;;;5050476;28;20029;-75
2022/04/20 10:13:04;;;;;;;24.42;19.17;;;256.80;2252.80;;;;;;5051575;28;20067;-76
2022/04/20 10:18:20;;;;;;;27.10;20.17;;;256.80;2252.80;;;;;;5055242;28;20128;-73
2022/04/20 10:20:51;;;;;;;27.25;22.98;;;281.70;2278.40;;;;;;5055526;28;20040;-73
2022/04/20 10:23:21;;;;;;;23.98;17.73;;;281.70;2278.40;;;;;;5054555;28;20548;-75
2022/04/20 10:25:50;;;;;;;22.65;17.02;;;281.90;2278.40;;;;;;5055283;28;20392;-74
2022/04/20 10:28:30;;;;;;;25.55;18.48;;;282.00;2278.40;;;;;;5055733;28;20025;-75
2022/04/20 10:31:05;;;;;;;21.83;16.90;;;282.20;2278.40;;;;;;5056698;28;20103;-74
2022/04/20 10:33:35;;;;;;;26.38;17.02;;;282.30;2278.40;;;;;;5053437;28;20025;-74
2022/04/20 10:36:04;;;;;;;21.38;17.10;;;307.30;2304.00;;;;;;5052241;28;20476;-75
2022/04/20 10:38:31;;;;;;;24.73;18.25;;;307.30;2304.00;;;;;;5052681;28;20430;-74
2022/04/20 10:40:59;;;;;;;26.67;14.77;;;307.70;2304.00;;;;;;5054752;28;20025;-76
2022/04/20 10:43:26;;;;;;;25.33;17.00;;;307.30;2304.00;;;;;;5053807;28;20090;-75
2022/04/20 10:46:17;;;;;;;19.40;15.48;;;307.40;2304.00;;;;;;5053526;28;20079;-77
2022/04/20 10:49:07;;;;;;;18.50;13.93;;;282.50;2278.40;;;;;;5054145;28;20033;-76
2022/04/20 10:51:42;;;;;;;21.45;16.50;;;282.30;2278.40;;;;;;5054348;28;20059;-78
2022/04/20 10:54:27;;;;;;;21.25;15.50;;;307.60;2304.00;;;;;;5054167;28;20076;-78
2022/04/20 10:56:59;;;;;;;19.13;14.65;;;307.90;2304.00;;;;;;5055378;28;20037;-78
2022/04/20 10:59:25;;;;;;;19.13;14.40;;;307.60;2304.00;;;;;;5055615;28;20017;-78
2022/04/20 11:02:03;;;;;;;21.52;14.38;;;307.20;2304.00;;;;;;5053986;28;20048;-78
2022/04/20 11:04:43;;;;;;;21.08;15.00;;;307.80;2304.00;;;;;;5053977;28;20021;-77
2022/04/20 11:07:08;;;;;;;17.48;13.98;;;307.80;2304.00;;;;;;5052179;28;20033;-78
2022/04/20 11:09:48;;;;;;;15.43;13.05;;;307.80;2304.00;;;;;;5054938;28;20041;-78
2022/04/20 11:21:05;;;;;;;16.38;12.02;;;332.80;2329.60;;;;;;5054537;28;20040;-78
2022/04/20 11:24:01;;;;;;;16.25;12.65;;;333.00;2329.60;;;;;;5053724;28;20025;-78
2022/04/20 11:26:41;;;;;;;24.27;13.63;;;332.90;2329.60;;;;;;5054605;28;20053;-77
2022/04/20 11:29:10;;;;;;;14.57;12.73;;;332.90;2329.60;;;;;;5052393;28;20067;-78
2022/04/20 11:31:38;;;;;;;16.63;12.55;;;332.90;2329.60;;;;;;5054487;28;20070;-78
2022/04/20 11:34:04;;;;;;;14.18;11.40;;;333.00;2329.60;;;;;;5053478;28;20028;-78
2022/04/20 11:36:30;;;;;;;13.45;11.05;;;333.00;2329.60;;;;;;5052532;28;20063;-77
2022/04/20 11:38:56;;;;;;;13.32;9.35;;;308.10;2304.00;;;;;;5052833;28;20138;-77
2022/04/20 11:41:21;;;;;;;;;;;308.00;2304.00;;;;;;5052926;28;20024;-77
2022/04/20 11:43:49;;;;;;;14.13;10.48;;;333.10;2329.60;;;;;;5053587;28;19990;-78
2022/04/20 11:46:16;;;;;;;15.52;11.15;;;333.40;2329.60;;;;;;5052436;28;20471;-77
2022/04/20 11:48:56;;;;;;;15.55;10.07;;;358.40;2329.60;;;;;;5053705;28;20112;-76
2022/04/20 11:51:25;;;;;;;14.10;10.40;;;358.50;2329.60;;;;;;5051185;28;20096;-76
2022/04/20 11:53:52;;;;;;;12.40;9.82;;;358.60;2329.60;;;;;;5052012;28;20106;-77
2022/04/20 11:56:32;;;;;;;12.27;9.07;;;358.90;2329.60;;;;;;5051822;28;20067;-77
2022/04/20 11:58:58;;;;;;;11.82;8.43;;;359.00;2329.60;;;;;;5052204;28;20055;-78
2022/04/20 12:01:25;;;;;;;18.10;9.45;;;359.00;2329.60;;;;;;5038357;28;20548;-76
2022/04/20 12:03:51;;;;;;;11.27;8.98;;;384.00;2278.40;;;;;;5049032;28;20127;-77
2022/04/20 12:06:18;;;;;;;12.52;9.23;;;359.10;2124.80;;;;;;5052045;28;20086;-76
2022/04/20 12:08:45;;;;;;;10.65;7.93;;;358.80;2329.60;;;;;;5051583;28;20041;-76
2022/04/20 12:11:12;;;;;;;10.48;8.23;;;358.90;2150.40;;;;;;5049020;28;20508;-75
2022/04/20 12:13:39;;;;;;;9.82;7.88;;;359.20;2073.60;;;;;;5052452;28;20044;-77
2022/04/20 12:16:09;;;;;;;12.50;7.97;;;384.00;2099.20;;;;;;5063562;28;20029;-77
2022/04/20 12:18:39;;;;;;;8.73;7.28;;;384.10;2099.20;;;;;;5065675;28;20116;-77
2022/04/20 12:21:26;;;;;;;17.98;8.00;;;359.30;2099.20;;;;;;5054623;28;20377;-77
2022/04/20 12:23:52;;;;;;;9.90;7.00;;;359.20;2099.20;;;;;;5051464;28;20033;-77
2022/04/20 12:26:26;;;;;;;10.80;7.68;;;384.00;2022.40;;;;;;5052981;28;20052;-77
2022/04/20 12:28:59;;;;;;;8.32;5.55;;;384.50;2048.00;;;;;;5075135;28;20045;-77
2022/04/20 12:31:25;;;;;;;7.57;5.88;;;384.70;1766.40;;;;;;5051397;28;20167;-77
2022/04/20 12:34:04;;;;;;;7.35;6.15;;;409.60;1792.00;;;;;;5051783;28;20490;-78
2022/04/20 12:36:31;;;;;;;11.48;5.93;;;384.90;1740.80;;;;;;5048132;28;20496;-77
2022/04/20 12:38:58;;;;;;;10.50;7.05;;;384.80;1792.00;;;;;;5039778;28;20559;-77
2022/04/20 12:41:34;;;;;;;9.57;7.63;;;384.40;1843.20;;;;;;5052411;28;20023;-77
2022/04/20 12:44:00;;;;;;;13.05;9.27;;;384.00;1996.80;;;;;;5052649;28;20114;-78
2022/04/20 12:46:33;;;;;;;12.57;9.02;;;359.10;2022.40;;;;;;5052307;28;20457;-78
2022/04/20 12:49:01;;;;;;;16.63;8.30;;;359.10;1971.20;;;;;;5042604;28;20044;-77
2022/04/20 12:51:26;;;;;;;10.23;7.15;;;358.90;2022.40;;;;;;5052698;28;20021;-77
2022/04/20 12:53:54;;;;;;;8.35;6.78;;;358.60;2022.40;;;;;;5041622;28;20125;-77